Time;durP1;ratioP1;P1;durP2;ratioP2;P2;SDS_P1;SDS_P2;PMS_P1;PMS_P2;Temp;Humidity;BMP_temperature;BMP_pressure;BME280_temperature;BME280_humidity;BME280_pressure;Samples;Min_cycle;Max_cycle;Signal;HPM_P1;HPM_P2
2024/01/29 00:01:04;;;;;;;;;;;;;;;3.86;58.11;101279.53;4381355;32;34369;-86
2024/01/29 00:03:32;;;;;;;;;;;;;;;3.79;58.36;101273.09;4374827;32;34159;-86
2024/01/29 00:06:00;;;;;;;;;;;;;;;3.82;58.38;101280.09;4379591;32;33196;-87
2024/01/29 00:08:27;;;;;;;;;;;;;;;3.85;58.16;101277.75;4368590;32;34227;-87
2024/01/29 00:10:55;;;;;;;;;;;;;;;3.85;57.98;101276.09;4363650;32;33869;-86
2024/01/29 00:13:22;;;;;;;;;;;;;;;3.78;58.27;101275.53;4358782;32;33409;-86
2024/01/29 00:15:50;;;;;;;;;;;;;;;3.84;58.18;101276.88;4359951;32;33299;-86
2024/01/29 00:18:20;;;;;;;;;;;;;;;3.79;58.38;101267.97;4370122;32;34231;-87
2024/01/29 00:20:47;;;;;;;;;;;;;;;3.80;58.27;101261.16;4374747;32;35669;-86
2024/01/29 00:23:16;;;;;;;;;;;;;;;3.82;58.21;101252.75;4364093;32;32689;-88
2024/01/29 00:25:43;;;;;;;;;;;;;;;3.72;58.32;101260.59;4380793;32;34333;-87
2024/01/29 00:28:10;;;;;;;;;;;;;;;3.72;58.28;101270.84;4373380;32;33488;-88
2024/01/29 00:30:37;;;;;;;;;;;;;;;3.65;58.38;101273.75;4380680;32;34264;-86
2024/01/29 00:33:05;;;;;;;;;;;;;;;3.60;58.62;101260.59;4381623;32;34037;-87
2024/01/29 00:35:32;;;;;;;;;;;;;;;3.64;58.50;101262.59;4380899;32;32325;-87
2024/01/29 00:37:59;;;;;;;;;;;;;;;3.72;58.02;101258.03;4374743;32;33861;-85
2024/01/29 00:40:27;;;;;;;;;;;;;;;3.73;57.94;101259.81;4378290;32;33642;-86
2024/01/29 00:42:55;;;;;;;;;;;;;;;3.78;57.84;101266.16;4380036;32;34779;-86
2024/01/29 00:45:22;;;;;;;;;;;;;;;3.68;58.02;101271.41;4382187;32;33215;-86
2024/01/29 00:47:50;;;;;;;;;;;;;;;3.56;58.43;101268.84;4378142;32;33692;-86
2024/01/29 00:50:17;;;;;;;;;;;;;;;3.67;58.42;101264.47;4379067;32;34068;-85
2024/01/29 00:52:44;;;;;;;;;;;;;;;3.77;57.96;101263.47;4374324;32;33761;-86
2024/01/29 00:55:12;;;;;;;;;;;;;;;3.68;58.08;101262.81;4381320;32;33072;-86
2024/01/29 00:57:39;;;;;;;;;;;;;;;3.82;57.57;101265.59;4379992;32;34231;-86
2024/01/29 01:00:07;;;;;;;;;;;;;;;3.80;57.13;101280.00;4375514;32;35376;-86
2024/01/29 01:02:34;;;;;;;;;;;;;;;3.74;57.05;101284.66;4379441;32;33908;-86
2024/01/29 01:05:01;;;;;;;;;;;;;;;3.68;57.24;101284.22;4370478;32;31908;-85
2024/01/29 01:07:29;;;;;;;;;;;;;;;3.60;57.47;101286.22;4358564;32;34097;-84
2024/01/29 01:09:57;;;;;;;;;;;;;;;3.61;57.65;101287.13;4375309;32;34415;-86
2024/01/29 01:12:24;;;;;;;;;;;;;;;3.69;57.43;101296.28;4360342;32;34258;-85
2024/01/29 01:14:51;;;;;;;;;;;;;;;3.70;57.28;101298.03;4358260;32;33253;-84
2024/01/29 01:17:19;;;;;;;;;;;;;;;3.56;57.57;101288.44;4359712;32;33917;-84
2024/01/29 01:19:46;;;;;;;;;;;;;;;3.60;57.65;101306.75;4368913;32;32960;-84
2024/01/29 01:22:14;;;;;;;;;;;;;;;3.59;57.46;101304.06;4357448;32;33865;-84
2024/01/29 01:24:42;;;;;;;;;;;;;;;3.62;57.32;101309.41;4373353;32;34361;-86
2024/01/29 01:27:10;;;;;;;;;;;;;;;3.65;57.38;101304.53;4368620;32;33994;-86
2024/01/29 01:29:37;;;;;;;;;;;;;;;3.50;57.52;101305.94;4374017;32;34695;-85
2024/01/29 01:32:05;;;;;;;;;;;;;;;3.57;57.51;101303.06;4371088;32;33973;-85
2024/01/29 01:34:32;;;;;;;;;;;;;;;3.63;57.35;101303.50;4374101;32;33316;-84
2024/01/29 01:36:59;;;;;;;;;;;;;;;3.45;57.83;101302.13;4373563;32;34055;-86
2024/01/29 01:39:27;;;;;;;;;;;;;;;3.57;57.43;101290.25;4372826;32;35122;-86
2024/01/29 01:41:55;;;;;;;;;;;;;;;3.48;57.57;101281.84;4359544;32;33540;-84
2024/01/29 01:44:22;;;;;;;;;;;;;;;3.54;57.39;101284.87;4373734;32;33447;-85
2024/01/29 01:46:50;;;;;;;;;;;;;;;3.53;57.41;101283.09;4377256;32;32857;-86
2024/01/29 01:49:18;;;;;;;;;;;;;;;3.52;57.45;101282.19;4359148;32;34874;-87
2024/01/29 01:51:45;;;;;;;;;;;;;;;3.56;57.36;101275.59;4370934;32;34338;-86
2024/01/29 01:54:13;;;;;;;;;;;;;;;3.57;57.16;101288.56;4373095;32;31937;-86
2024/01/29 01:56:40;;;;;;;;;;;;;;;3.58;57.16;101289.44;4361000;32;32955;-86
2024/01/29 01:59:10;;;;;;;;;;;;;;;3.42;57.45;101280.63;4361245;32;32710;-85
2024/01/29 02:01:38;;;;;;;;;;;;;;;3.48;57.46;101274.16;4372155;32;33827;-85
2024/01/29 02:04:05;;;;;;;;;;;;;;;3.40;57.90;101283.81;4372058;32;33020;-85
2024/01/29 02:06:33;;;;;;;;;;;;;;;3.46;57.54;101281.75;4370977;32;34977;-86
2024/01/29 02:09:00;;;;;;;;;;;;;;;3.56;57.13;101278.16;4359770;32;35240;-85
2024/01/29 02:11:28;;;;;;;;;;;;;;;3.44;57.37;101272.13;4361715;32;33936;-87
2024/01/29 02:13:55;;;;;;;;;;;;;;;3.48;57.30;101284.41;4377427;32;32530;-86
2024/01/29 02:16:22;;;;;;;;;;;;;;;3.41;57.48;101288.19;4373758;32;33747;-86
2024/01/29 02:18:50;;;;;;;;;;;;;;;3.55;57.04;101276.38;4375644;32;33847;-85
2024/01/29 02:21:17;;;;;;;;;;;;;;;3.43;57.25;101276.38;4373957;32;34353;-85
2024/01/29 02:23:45;;;;;;;;;;;;;;;3.48;56.90;101279.28;4373182;32;33385;-84
2024/01/29 02:26:12;;;;;;;;;;;;;;;3.44;56.96;101282.38;4361736;32;33789;-84
2024/01/29 02:28:40;;;;;;;;;;;;;;;3.38;57.18;101272.59;4373798;32;34281;-86
2024/01/29 02:31:07;;;;;;;;;;;;;;;3.34;57.34;101276.59;4374760;32;33904;-84
2024/01/29 02:33:35;;;;;;;;;;;;;;;3.37;57.42;101270.78;4373408;32;33399;-85
2024/01/29 02:36:03;;;;;;;;;;;;;;;3.38;57.00;101272.59;4375599;32;33498;-86
2024/01/29 02:38:30;;;;;;;;;;;;;;;3.40;56.99;101277.03;4373716;32;35201;-85
2024/01/29 02:40:58;;;;;;;;;;;;;;;3.38;57.20;101273.47;4376387;32;33839;-85
2024/01/29 02:43:25;;;;;;;;;;;;;;;3.39;56.99;101265.00;4373606;32;34070;-85
2024/01/29 02:45:52;;;;;;;;;;;;;;;3.35;57.10;101260.41;4374229;32;33843;-84
2024/01/29 02:48:20;;;;;;;;;;;;;;;3.36;57.18;101264.75;4375892;32;34038;-85
2024/01/29 02:50:48;;;;;;;;;;;;;;;3.39;57.11;101256.41;4375000;32;34144;-84
2024/01/29 02:53:15;;;;;;;;;;;;;;;3.35;57.28;101255.28;4374139;32;33365;-86
2024/01/29 02:55:43;;;;;;;;;;;;;;;3.35;57.15;101254.41;4369531;32;33726;-85
2024/01/29 02:58:10;;;;;;;;;;;;;;;3.30;57.40;101253.19;4368198;32;34447;-84
2024/01/29 03:00:37;;;;;;;;;;;;;;;3.36;57.31;101251.94;4369671;32;33088;-85
2024/01/29 03:03:05;;;;;;;;;;;;;;;3.36;57.40;101254.50;4373069;32;33120;-86
2024/01/29 03:05:32;;;;;;;;;;;;;;;3.39;57.21;101253.84;4375895;32;34755;-85
2024/01/29 03:08:00;;;;;;;;;;;;;;;3.27;57.45;101253.81;4374603;32;34098;-86
2024/01/29 03:10:27;;;;;;;;;;;;;;;3.26;57.24;101257.19;4374106;32;34189;-83
2024/01/29 03:12:56;;;;;;;;;;;;;;;3.19;57.62;101264.28;4373496;32;31866;-83
2024/01/29 03:15:25;;;;;;;;;;;;;;;3.30;57.28;101256.63;4372985;32;34070;-84
2024/01/29 03:17:52;;;;;;;;;;;;;;;3.25;56.98;101263.06;4374102;32;35195;-84
2024/01/29 03:20:20;;;;;;;;;;;;;;;3.25;56.94;101260.50;4372663;32;33694;-85
2024/01/29 03:22:47;;;;;;;;;;;;;;;3.22;57.25;101278.22;4372316;32;34066;-86
2024/01/29 03:25:14;;;;;;;;;;;;;;;3.22;57.42;101274.75;4374619;32;34988;-84
2024/01/29 03:27:41;;;;;;;;;;;;;;;3.15;57.28;101273.41;4374136;32;34565;-84
2024/01/29 03:30:09;;;;;;;;;;;;;;;3.16;57.36;101276.09;4372078;32;35006;-84
2024/01/29 03:32:36;;;;;;;;;;;;;;;3.15;57.56;101275.97;4373128;32;32967;-83
2024/01/29 03:35:04;;;;;;;;;;;;;;;3.32;56.77;101266.97;4374327;32;35141;-83
2024/01/29 03:37:31;;;;;;;;;;;;;;;3.18;56.79;101281.31;4373213;32;34286;-86
2024/01/29 03:39:59;;;;;;;;;;;;;;;3.07;57.39;101269.34;4373492;32;33995;-86
2024/01/29 03:42:26;;;;;;;;;;;;;;;3.12;57.27;101273.16;4373913;32;32863;-84
2024/01/29 03:44:53;;;;;;;;;;;;;;;3.10;57.27;101264.47;4375480;32;33991;-85
2024/01/29 03:47:21;;;;;;;;;;;;;;;3.12;57.17;101263.81;4375268;32;35195;-85
2024/01/29 03:49:49;;;;;;;;;;;;;;;3.13;57.24;101270.72;4374930;32;34417;-86
2024/01/29 03:52:16;;;;;;;;;;;;;;;3.13;57.33;101270.72;4371731;32;34272;-85
2024/01/29 03:54:43;;;;;;;;;;;;;;;3.10;57.40;101264.47;4375273;32;34924;-89
2024/01/29 03:57:11;;;;;;;;;;;;;;;3.14;57.50;101256.22;4373912;32;34422;-88
2024/01/29 03:59:38;;;;;;;;;;;;;;;3.06;57.44;101255.66;4373044;32;34513;-86
2024/01/29 04:02:05;;;;;;;;;;;;;;;3.03;57.52;101263.13;4371787;32;33055;-86
2024/01/29 04:04:33;;;;;;;;;;;;;;;3.09;57.50;101263.56;4374009;32;34029;-86
2024/01/29 04:07:01;;;;;;;;;;;;;;;3.06;57.68;101265.00;4373457;32;33339;-86
2024/01/29 04:09:28;;;;;;;;;;;;;;;3.07;57.61;101265.16;4372845;32;35037;-85
2024/01/29 04:11:56;;;;;;;;;;;;;;;3.19;57.27;101261.72;4372051;32;33505;-85
2024/01/29 04:14:23;;;;;;;;;;;;;;;3.13;57.40;101269.81;4374436;32;35007;-86
2024/01/29 04:16:50;;;;;;;;;;;;;;;3.06;57.69;101273.59;4374090;32;34403;-86
2024/01/29 04:19:18;;;;;;;;;;;;;;;2.93;58.00;101266.63;4372954;32;35036;-84
2024/01/29 04:21:45;;;;;;;;;;;;;;;3.17;57.12;101264.16;4373775;32;33428;-85
2024/01/29 04:24:13;;;;;;;;;;;;;;;3.15;56.75;101264.06;4374108;32;33458;-85
2024/01/29 04:26:40;;;;;;;;;;;;;;;3.12;56.51;101273.16;4374650;32;32858;-86
2024/01/29 04:29:11;;;;;;;;;;;;;;;3.07;56.80;101280.53;4372397;32;34435;-85
2024/01/29 04:31:38;;;;;;;;;;;;;;;3.09;56.91;101271.25;4373088;32;33103;-85
2024/01/29 04:34:05;;;;;;;;;;;;;;;3.09;57.00;101270.38;4373235;32;34066;-85
2024/01/29 04:36:33;;;;;;;;;;;;;;;3.07;56.93;101266.78;4372596;32;34236;-85
2024/01/29 04:39:00;;;;;;;;;;;;;;;3.00;57.04;101259.44;4375606;32;33361;-84
2024/01/29 04:41:27;;;;;;;;;;;;;;;2.91;57.57;101260.50;4373127;32;32140;-85
2024/01/29 04:43:55;;;;;;;;;;;;;;;2.92;57.42;101263.97;4375186;32;34101;-85
2024/01/29 04:46:22;;;;;;;;;;;;;;;2.96;56.88;101260.87;4375256;32;35112;-85
2024/01/29 04:48:50;;;;;;;;;;;;;;;3.00;56.80;101259.44;4360116;32;34024;-85
2024/01/29 04:51:17;;;;;;;;;;;;;;;2.92;56.96;101264.88;4375569;32;33589;-87
2024/01/29 04:53:45;;;;;;;;;;;;;;;2.98;56.80;101268.66;4362306;32;34343;-86
2024/01/29 04:56:12;;;;;;;;;;;;;;;2.88;56.88;101273.09;4374007;32;33086;-84
2024/01/29 04:58:39;;;;;;;;;;;;;;;2.88;56.90;101278.22;4374584;32;34177;-84
2024/01/29 05:01:06;;;;;;;;;;;;;;;2.93;56.77;101282.00;4374520;32;34123;-85
2024/01/29 05:03:34;;;;;;;;;;;;;;;2.95;56.81;101284.69;4375051;32;35042;-85
2024/01/29 05:06:01;;;;;;;;;;;;;;;2.84;57.00;101295.75;4375012;32;33821;-85
2024/01/29 05:08:29;;;;;;;;;;;;;;;2.78;57.30;101293.63;4375352;32;33867;-87
2024/01/29 05:10:56;;;;;;;;;;;;;;;2.81;57.47;101301.56;4373400;32;33788;-87
2024/01/29 05:13:24;;;;;;;;;;;;;;;2.69;57.80;101295.50;4374861;32;33885;-86
2024/01/29 05:15:51;;;;;;;;;;;;;;;2.72;57.86;101289.69;4374816;32;34134;-85
2024/01/29 05:18:18;;;;;;;;;;;;;;;2.76;57.73;101284.94;4372671;32;35086;-87
2024/01/29 05:20:45;;;;;;;;;;;;;;;2.71;58.17;101287.91;4375415;32;33511;-86
2024/01/29 05:23:13;;;;;;;;;;;;;;;2.79;57.84;101282.59;4373983;32;34094;-87
2024/01/29 05:25:40;;;;;;;;;;;;;;;2.77;57.59;101291.84;4373977;32;33882;-85
2024/01/29 05:28:07;;;;;;;;;;;;;;;2.88;57.24;101298.72;4372618;32;35181;-84
2024/01/29 05:30:34;;;;;;;;;;;;;;;2.76;57.66;101295.16;4371439;32;33078;-85
2024/01/29 05:33:02;;;;;;;;;;;;;;;2.80;57.44;101298.88;4372456;32;33573;-87
2024/01/29 05:35:49;;;;;;;;;;;;;;;2.76;57.29;101301.97;4373576;32;33991;-87
2024/01/29 05:38:17;;;;;;;;;;;;;;;2.65;57.55;101304.59;4376209;32;33600;-86
2024/01/29 05:40:44;;;;;;;;;;;;;;;2.76;57.48;101301.97;4371822;32;32994;-87
2024/01/29 05:43:12;;;;;;;;;;;;;;;2.58;58.02;101297.22;4374938;32;34098;-87
2024/01/29 05:45:40;;;;;;;;;;;;;;;2.58;58.07;101288.63;4376043;32;35273;-85
2024/01/29 05:48:08;;;;;;;;;;;;;;;2.73;57.65;101288.91;4375847;32;33804;-85
2024/01/29 05:50:36;;;;;;;;;;;;;;;2.67;57.56;101282.56;4374669;32;33214;-85
2024/01/29 05:53:03;;;;;;;;;;;;;;;2.62;57.73;101289.00;4375815;32;34960;-86
2024/01/29 05:55:30;;;;;;;;;;;;;;;2.65;57.68;101281.56;4374114;32;34007;-85
2024/01/29 05:57:58;;;;;;;;;;;;;;;2.66;57.72;101285.00;4375434;32;34344;-86
2024/01/29 06:00:25;;;;;;;;;;;;;;;2.53;58.25;101287.38;4377054;32;34178;-86
2024/01/29 06:02:53;;;;;;;;;;;;;;;2.55;58.12;101293.50;4377520;32;34081;-86
2024/01/29 06:05:20;;;;;;;;;;;;;;;2.70;57.48;101294.72;4377372;32;34473;-87
2024/01/29 06:07:47;;;;;;;;;;;;;;;2.61;57.41;101294.91;4374325;32;32828;-85
2024/01/29 06:10:15;;;;;;;;;;;;;;;2.53;57.78;101295.94;4372597;32;33091;-86
2024/01/29 06:12:42;;;;;;;;;;;;;;;2.52;58.07;101298.37;4374573;32;35113;-85
2024/01/29 06:15:10;;;;;;;;;;;;;;;2.57;58.04;101295.41;4375802;32;34420;-85
2024/01/29 06:17:38;;;;;;;;;;;;;;;2.61;57.81;101296.53;4375965;32;35093;-85
2024/01/29 06:20:06;;;;;;;;;;;;;;;2.63;57.64;101303.56;4376242;32;33733;-86
2024/01/29 06:22:45;;;;;;;;;;;;;;;2.71;57.23;101301.63;4375225;32;34734;-86
2024/01/29 06:25:12;;;;;;;;;;;;;;;2.60;57.40;101300.78;4377616;32;33738;-85
2024/01/29 06:27:40;;;;;;;;;;;;;;;2.61;57.63;101309.34;4374836;32;34955;-86
2024/01/29 06:30:08;;;;;;;;;;;;;;;2.67;57.29;101304.72;4377541;32;34024;-86
2024/01/29 06:32:36;;;;;;;;;;;;;;;2.59;57.41;101301.56;4379084;32;34335;-85
2024/01/29 06:35:03;;;;;;;;;;;;;;;2.62;57.53;101309.47;4377825;32;33848;-86
2024/01/29 06:37:31;;;;;;;;;;;;;;;2.57;57.85;101310.75;4363928;32;34152;-86
2024/01/29 06:39:58;;;;;;;;;;;;;;;2.66;57.76;101311.50;4376974;32;34231;-83
2024/01/29 06:42:26;;;;;;;;;;;;;;;2.56;57.77;101310.66;4375954;32;34405;-85
2024/01/29 06:44:54;;;;;;;;;;;;;;;2.62;57.73;101313.72;4373934;32;34127;-84
2024/01/29 06:47:21;;;;;;;;;;;;;;;2.60;58.06;101311.00;4375328;32;33980;-84
2024/01/29 06:49:48;;;;;;;;;;;;;;;2.69;57.85;101310.88;4376150;32;33707;-84
2024/01/29 06:52:16;;;;;;;;;;;;;;;2.63;58.05;101302.69;4377785;32;34179;-85
2024/01/29 06:54:45;;;;;;;;;;;;;;;2.61;58.20;101306.78;4381011;32;33756;-85
2024/01/29 06:57:13;;;;;;;;;;;;;;;2.65;58.09;101307.16;4378534;32;34330;-85
2024/01/29 06:59:40;;;;;;;;;;;;;;;2.61;58.38;101312.81;4383412;32;34379;-86
2024/01/29 07:02:08;;;;;;;;;;;;;;;2.67;58.50;101308.16;4376556;32;34697;-83
2024/01/29 07:04:36;;;;;;;;;;;;;;;2.72;58.71;101311.06;4375846;32;34377;-86
2024/01/29 07:07:03;;;;;;;;;;;;;;;2.79;58.54;101310.78;4375985;32;34562;-83
2024/01/29 07:09:31;;;;;;;;;;;;;;;2.83;58.65;101314.47;4375236;32;35343;-84
2024/01/29 07:11:59;;;;;;;;;;;;;;;2.87;58.20;101319.97;4374678;32;33978;-84
2024/01/29 07:14:26;;;;;;;;;;;;;;;2.90;58.02;101322.75;4374639;32;33071;-85
2024/01/29 07:16:53;;;;;;;;;;;;;;;2.98;57.86;101330.16;4375171;32;34734;-84
2024/01/29 07:19:33;;;;;;;;;;;;;;;2.86;57.85;101330.97;4375467;32;31568;-86
2024/01/29 07:22:04;;;;;;;;;;;;;;;2.67;58.91;101327.75;4373027;32;33929;-86
2024/01/29 07:24:32;;;;;;;;;;;;;;;2.73;59.08;101332.47;4376047;32;34111;-86
2024/01/29 07:27:00;;;;;;;;;;;;;;;2.84;58.82;101329.06;4375688;32;34917;-85
2024/01/29 07:29:29;;;;;;;;;;;;;;;2.82;58.88;101334.09;4374277;32;32725;-87
2024/01/29 07:31:58;;;;;;;;;;;;;;;2.88;58.70;101333.69;4374514;32;33411;-85
2024/01/29 07:34:26;;;;;;;;;;;;;;;2.77;59.10;101335.41;4375207;32;35297;-85
2024/01/29 07:36:54;;;;;;;;;;;;;;;2.75;59.62;101333.47;4376233;32;33449;-85
2024/01/29 07:39:21;;;;;;;;;;;;;;;2.92;59.23;101339.16;4376704;32;33070;-84
2024/01/29 07:41:48;;;;;;;;;;;;;;;2.90;59.34;101345.81;4374469;32;34279;-85
2024/01/29 07:44:16;;;;;;;;;;;;;;;3.06;58.96;101342.78;4375623;32;34448;-85
2024/01/29 07:46:43;;;;;;;;;;;;;;;2.89;59.74;101341.47;4374238;32;33773;-85
2024/01/29 07:49:12;;;;;;;;;;;;;;;2.95;59.63;101350.41;4375757;32;32994;-86
2024/01/29 07:51:42;;;;;;;;;;;;;;;3.04;59.55;101354.59;4375539;32;34823;-86
2024/01/29 07:54:10;;;;;;;;;;;;;;;3.07;59.54;101348.78;4373253;32;33678;-86
2024/01/29 07:56:39;;;;;;;;;;;;;;;2.94;60.11;101336.72;4375305;32;35258;-85
2024/01/29 07:59:07;;;;;;;;;;;;;;;3.00;59.92;101339.75;4374561;32;33727;-85
2024/01/29 08:01:34;;;;;;;;;;;;;;;2.79;60.78;101344.09;4376762;32;33673;-85
2024/01/29 08:04:03;;;;;;;;;;;;;;;2.85;60.87;101334.34;4380787;32;35371;-86
2024/01/29 08:06:32;;;;;;;;;;;;;;;2.82;61.28;101343.44;4380698;32;32806;-85
2024/01/29 08:08:59;;;;;;;;;;;;;;;2.93;61.23;101340.06;4381682;32;33447;-86
2024/01/29 08:11:27;;;;;;;;;;;;;;;2.78;61.71;101342.31;4376066;32;34437;-87
2024/01/29 08:13:54;;;;;;;;;;;;;;;2.87;61.63;101337.88;4377171;32;33938;-86
2024/01/29 08:16:21;;;;;;;;;;;;;;;3.28;60.88;101335.06;4376286;32;34207;-84
2024/01/29 08:18:48;;;;;;;;;;;;;;;3.26;60.87;101335.72;4381465;32;34128;-87
2024/01/29 08:21:16;;;;;;;;;;;;;;;3.12;60.70;101332.13;4380837;32;34072;-86
2024/01/29 08:23:45;;;;;;;;;;;;;;;3.07;61.11;101325.72;4363619;32;33996;-84
2024/01/29 08:26:12;;;;;;;;;;;;;;;3.15;60.74;101324.66;4374065;32;34107;-86
2024/01/29 08:28:40;;;;;;;;;;;;;;;3.37;60.27;101325.53;4375137;32;33489;-85
2024/01/29 08:31:08;;;;;;;;;;;;;;;3.41;59.36;101324.09;4374822;32;33714;-84
2024/01/29 08:33:38;;;;;;;;;;;;;;;3.19;59.33;101324.13;4372414;32;34474;-85
2024/01/29 08:36:05;;;;;;;;;;;;;;;3.40;59.06;101328.31;4376201;32;33729;-85
2024/01/29 08:38:32;;;;;;;;;;;;;;;3.70;57.69;101323.69;4377054;32;33012;-86
2024/01/29 08:41:00;;;;;;;;;;;;;;;3.49;59.45;101332.37;4375999;32;34145;-85
2024/01/29 08:43:27;;;;;;;;;;;;;;;3.57;59.32;101331.28;4375910;32;34382;-86
2024/01/29 08:45:54;;;;;;;;;;;;;;;3.92;58.34;101327.88;4375216;32;32749;-84
2024/01/29 08:48:24;;;;;;;;;;;;;;;4.12;57.67;101333.66;4374452;32;33714;-85
2024/01/29 08:50:51;;;;;;;;;;;;;;;3.80;57.27;101333.88;4373833;32;35081;-85
2024/01/29 08:53:18;;;;;;;;;;;;;;;3.69;58.18;101334.75;4377417;32;34445;-86
2024/01/29 08:55:46;;;;;;;;;;;;;;;3.92;58.50;101335.56;4375138;32;33926;-86
2024/01/29 08:58:14;;;;;;;;;;;;;;;4.14;57.49;101333.81;4360838;32;34112;-86
2024/01/29 09:00:41;;;;;;;;;;;;;;;4.06;57.95;101333.25;4373610;32;33703;-85
2024/01/29 09:03:09;;;;;;;;;;;;;;;4.52;56.45;101334.00;4376134;32;34026;-86
2024/01/29 09:05:38;;;;;;;;;;;;;;;3.85;57.33;101339.34;4377254;32;34801;-85
2024/01/29 09:08:06;;;;;;;;;;;;;;;4.17;57.31;101339.16;4372982;32;33057;-86
2024/01/29 09:10:45;;;;;;;;;;;;;;;4.38;56.84;101342.37;4371703;32;34339;-86
2024/01/29 09:13:15;;;;;;;;;;;;;;;4.23;57.44;101341.28;4373851;32;35259;-85
2024/01/29 09:15:42;;;;;;;;;;;;;;;3.81;58.52;101342.47;4374196;32;33696;-85
2024/01/29 09:18:10;;;;;;;;;;;;;;;4.01;58.24;101349.94;4373411;32;33085;-86
2024/01/29 09:20:37;;;;;;;;;;;;;;;4.34;57.60;101348.06;4373742;32;34351;-86
2024/01/29 09:23:04;;;;;;;;;;;;;;;4.28;58.10;101348.53;4362065;32;32786;-85
2024/01/29 09:25:32;;;;;;;;;;;;;;;4.52;56.73;101344.28;4365222;32;34071;-86
2024/01/29 09:27:59;;;;;;;;;;;;;;;4.27;57.85;101344.16;4377029;32;33321;-84
2024/01/29 09:30:26;;;;;;;;;;;;;;;4.60;57.22;101342.25;4380116;32;32784;-86
2024/01/29 09:32:56;;;;;;;;;;;;;;;4.71;57.21;101345.59;4382770;32;35126;-85
2024/01/29 09:35:41;;;;;;;;;;;;;;;4.72;56.77;101348.25;4379048;32;34524;-86
2024/01/29 09:38:08;;;;;;;;;;;;;;;4.38;57.35;101347.50;4380558;32;33233;-85
2024/01/29 09:40:36;;;;;;;;;;;;;;;4.34;57.87;101354.09;4377459;32;33940;-84
2024/01/29 09:43:05;;;;;;;;;;;;;;;4.56;56.60;101340.25;4364361;32;35366;-87
2024/01/29 09:45:32;;;;;;;;;;;;;;;4.57;56.89;101342.03;4377270;32;34209;-85
2024/01/29 09:47:59;;;;;;;;;;;;;;;4.92;56.75;101346.19;4369023;32;33200;-84
2024/01/29 09:50:27;;;;;;;;;;;;;;;4.68;57.22;101346.25;4362996;32;33859;-86
2024/01/29 09:52:54;;;;;;;;;;;;;;;4.48;57.31;101346.50;4366545;32;34512;-85
2024/01/29 09:55:25;;;;;;;;;;;;;;;4.35;56.62;101350.75;4362390;32;34050;-84
2024/01/29 09:57:53;;;;;;;;;;;;;;;4.70;56.14;101344.69;4369650;32;33564;-85
2024/01/29 10:00:20;;;;;;;;;;;;;;;5.09;55.41;101345.69;4376426;32;34260;-87
2024/01/29 10:02:48;;;;;;;;;;;;;;;4.56;55.84;101350.53;4373554;32;35300;-87
2024/01/29 10:05:15;;;;;;;;;;;;;;;4.48;56.86;101352.53;4366291;32;34251;-85
2024/01/29 10:07:43;;;;;;;;;;;;;;;5.10;55.83;101348.38;4382605;32;33321;-86
2024/01/29 10:10:10;;;;;;;;;;;;;;;5.07;55.40;101342.13;4371232;32;35006;-87
2024/01/29 10:12:38;;;;;;;;;;;;;;;5.27;55.72;101336.69;4375483;32;34327;-86
2024/01/29 10:15:06;;;;;;;;;;;;;;;5.45;55.57;101331.00;4382962;32;33834;-86
2024/01/29 10:17:33;;;;;;;;;;;;;;;5.89;54.29;101328.84;4373984;32;33125;-85
2024/01/29 10:20:00;;;;;;;;;;;;;;;5.41;55.19;101332.47;4373761;32;35067;-86
2024/01/29 10:22:30;;;;;;;;;;;;;;;5.44;55.01;101329.22;4375708;32;34029;-87
2024/01/29 10:25:02;;;;;;;;;;;;;;;5.98;53.42;101332.03;4381756;32;35200;-86
2024/01/29 10:27:30;;;;;;;;;;;;;;;6.06;53.62;101336.03;4375277;32;33742;-85
2024/01/29 10:29:57;;;;;;;;;;;;;;;6.08;52.44;101331.84;4381717;32;32979;-86
2024/01/29 10:32:25;;;;;;;;;;;;;;;6.02;52.15;101330.56;4380993;32;33665;-85
2024/01/29 10:34:52;;;;;;;;;;;;;;;5.75;53.33;101338.19;4376660;32;35267;-85
2024/01/29 10:37:20;;;;;;;;;;;;;;;6.17;52.93;101334.13;4378215;32;33136;-85
2024/01/29 10:39:47;;;;;;;;;;;;;;;6.25;52.27;101332.97;4386854;32;34918;-86
2024/01/29 10:42:27;;;;;;;;;;;;;;;6.48;51.91;101329.28;4370664;32;34860;-87
2024/01/29 10:44:59;;;;;;;;;;;;;;;6.28;52.58;101338.28;4376501;32;34141;-85
2024/01/29 10:47:33;;;;;;;;;;;;;;;6.06;54.15;101340.25;4377886;32;34284;-85
2024/01/29 10:50:00;;;;;;;;;;;;;;;5.71;54.72;101331.06;4377957;32;34899;-85
2024/01/29 10:52:28;;;;;;;;;;;;;;;6.33;53.45;101329.19;4374098;32;35008;-85
2024/01/29 10:54:56;;;;;;;;;;;;;;;6.58;52.79;101325.59;4372061;32;35087;-86
2024/01/29 10:57:24;;;;;;;;;;;;;;;6.46;53.13;101325.69;4378790;32;34039;-85
2024/01/29 10:59:52;;;;;;;;;;;;;;;6.78;51.84;101312.28;4374102;32;34732;-86
2024/01/29 11:02:21;;;;;;;;;;;;;;;6.38;52.74;101310.56;4379463;32;34154;-84
2024/01/29 11:04:48;;;;;;;;;;;;;;;5.99;53.24;101309.78;4373464;32;33974;-86
2024/01/29 11:07:17;;;;;;;;;;;;;;;6.01;53.45;101316.78;4379167;32;33442;-85
2024/01/29 11:09:56;;;;;;;;;;;;;;;6.00;53.09;101308.97;4366439;32;35274;-86
2024/01/29 11:12:25;;;;;;;;;;;;;;;6.02;52.43;101299.66;4365104;32;34185;-86
2024/01/29 11:15:02;;;;;;;;;;;;;;;6.23;52.70;101295.00;4381681;32;34586;-85
2024/01/29 11:17:30;;;;;;;;;;;;;;;6.39;51.85;101289.16;4384170;32;33621;-86
2024/01/29 11:20:08;;;;;;;;;;;;;;;6.58;51.85;101281.78;4377538;32;34344;-86
2024/01/29 11:22:39;;;;;;;;;;;;;;;6.47;51.73;101282.78;4369761;32;34094;-87
2024/01/29 11:25:08;;;;;;;;;;;;;;;6.31;52.65;101286.97;4381694;32;34808;-86
2024/01/29 11:27:38;;;;;;;;;;;;;;;6.50;50.99;101275.25;4376801;32;33050;-86
2024/01/29 11:30:11;;;;;;;;;;;;;;;6.38;51.24;101269.34;4374980;32;34478;-86
2024/01/29 11:32:40;;;;;;;;;;;;;;;6.31;51.50;101266.38;4374150;32;32826;-86
2024/01/29 11:35:11;;;;;;;;;;;;;;;6.57;51.22;101249.06;4379999;32;34201;-86
2024/01/29 11:37:39;;;;;;;;;;;;;;;6.74;50.72;101251.03;4368493;32;33426;-86
2024/01/29 11:40:25;;;;;;;;;;;;;;;6.67;51.29;101247.97;4382034;32;33492;-86
2024/01/29 11:42:53;;;;;;;;;;;;;;;6.76;51.47;101256.25;4372469;32;35344;-84
2024/01/29 11:45:20;;;;;;;;;;;;;;;6.65;51.38;101263.31;4378235;32;34898;-85
2024/01/29 11:47:47;;;;;;;;;;;;;;;6.45;51.79;101249.22;4365289;32;33468;-86
2024/01/29 11:50:15;;;;;;;;;;;;;;;6.89;50.75;101240.72;4381720;32;35108;-84
2024/01/29 11:52:43;;;;;;;;;;;;;;;6.85;51.18;101236.19;4377403;32;35105;-84
2024/01/29 11:55:10;;;;;;;;;;;;;;;7.06;51.26;101236.59;4384011;32;34586;-86
2024/01/29 11:57:44;;;;;;;;;;;;;;;6.87;51.71;101244.03;4365507;32;33327;-83
2024/01/29 12:00:12;;;;;;;;;;;;;;;6.82;51.60;101241.19;4380886;32;34204;-85
2024/01/29 12:02:39;;;;;;;;;;;;;;;6.99;51.85;101240.50;4377489;32;34336;-86
2024/01/29 12:05:07;;;;;;;;;;;;;;;7.29;51.18;101236.28;4380872;32;34453;-85
2024/01/29 12:07:34;;;;;;;;;;;;;;;7.09;51.39;101241.06;4371277;32;33399;-83
2024/01/29 12:10:02;;;;;;;;;;;;;;;7.07;51.84;101238.38;4382054;32;35476;-85
2024/01/29 12:12:29;;;;;;;;;;;;;;;6.98;51.87;101245.56;4367647;32;35699;-85
2024/01/29 12:14:57;;;;;;;;;;;;;;;7.10;51.53;101243.72;4381558;32;34118;-85
2024/01/29 12:17:25;;;;;;;;;;;;;;;7.34;50.91;101241.69;4382902;32;33106;-85
2024/01/29 12:19:53;;;;;;;;;;;;;;;6.32;53.58;101249.22;4384000;32;34857;-86
2024/01/29 12:22:20;;;;;;;;;;;;;;;6.82;53.17;101236.03;4382580;32;35113;-86
2024/01/29 12:24:49;;;;;;;;;;;;;;;7.05;52.76;101242.56;4381535;32;34209;-85
2024/01/29 12:27:16;;;;;;;;;;;;;;;7.40;51.70;101238.59;4380371;32;33167;-84
2024/01/29 12:29:45;;;;;;;;;;;;;;;7.30;52.09;101240.63;4380604;32;34555;-83
2024/01/29 12:32:13;;;;;;;;;;;;;;;7.15;51.95;101237.13;4381083;32;34205;-84
2024/01/29 12:34:47;;;;;;;;;;;;;;;6.42;53.44;101242.97;4364437;32;33826;-84
2024/01/29 12:37:21;;;;;;;;;;;;;;;6.23;53.95;101241.81;4383830;32;34265;-87
2024/01/29 12:39:54;;;;;;;;;;;;;;;6.87;52.56;101236.28;4375788;32;35016;-84
2024/01/29 12:42:22;;;;;;;;;;;;;;;7.10;52.21;101238.56;4368244;32;34065;-84
2024/01/29 12:44:55;;;;;;;;;;;;;;;6.89;53.47;101237.25;4381958;32;34279;-84
2024/01/29 12:47:23;;;;;;;;;;;;;;;7.15;52.69;101231.97;4374518;32;33088;-85
2024/01/29 12:49:50;;;;;;;;;;;;;;;6.57;53.52;101233.63;4383987;32;33750;-83
2024/01/29 12:52:18;;;;;;;;;;;;;;;6.47;53.92;101236.41;4381133;32;35190;-84